Terminal Aerodrome Forecast
Issued by NWS Cleveland, OH

Home | Current Version | Previous Version | Graphics & Text | Print | Product List | Glossary On
Versions: 1 2 3 4 5 6 7 8 9 10 11 12 13 14 15 16 17 18 19 20 21 22 23 24 25
000
FTUS41 KCLE 031700
TAFCAK
TAF
KCAK 031730Z 0318/0418 23010KT P6SM SCT060
     FM040000 19006KT P6SM SCT250
     FM041000 18008KT P6SM SCT100 BKN250
     FM041500 21012G18KT P6SM SCT045 BKN250=

USA.gov is the U.S. government's official web portal to all federal, state and local government web resources and services.